createdAt,value
2023-05-05T00:01:08.986Z,96499.78
2023-05-05T00:03:40.271Z,96493.13
2023-05-05T00:06:13.420Z,96494.44
2023-05-05T00:08:41.432Z,96495.56
2023-05-05T00:11:16.766Z,96388.72
2023-05-05T00:13:50.803Z,96483.81
2023-05-05T00:16:18.926Z,96493.84
2023-05-05T00:18:47.359Z,96489.09
2023-05-05T00:21:19.382Z,96496.63
2023-05-05T00:23:48.467Z,96489.03
2023-05-05T00:26:19.824Z,96502.53
2023-05-05T00:28:52.187Z,96493.16
2023-05-05T00:31:24.099Z,96500.16
2023-05-05T00:33:52.473Z,96487.28
2023-05-05T00:36:21.323Z,96489.59
2023-05-05T00:38:49.624Z,96507.22
2023-05-05T00:41:20.655Z,96503.72
2023-05-05T00:43:50.497Z,96390.53
2023-05-05T00:46:26.257Z,96505.09
2023-05-05T00:48:58.527Z,96496.88
2023-05-05T00:51:27.249Z,96491.81
2023-05-05T00:53:59.888Z,96422.38
2023-05-05T00:56:28.982Z,96491.44
2023-05-05T00:58:59.714Z,96499.03
2023-05-05T01:01:32.224Z,96492.78
2023-05-05T01:04:02.825Z,96490.72
2023-05-05T01:06:43.781Z,96472.63
2023-05-05T01:09:22.849Z,96493.59
2023-05-05T01:12:07.700Z,96483.25
2023-05-05T01:14:41.226Z,96481.56
2023-05-05T01:17:16.557Z,96481.97
2023-05-05T01:20:04.831Z,96482.59
2023-05-05T01:22:39.870Z,96478.69
2023-05-05T01:25:23.868Z,96483.94
2023-05-05T01:28:02.298Z,96478.06
2023-05-05T01:31:09.157Z,96479.84
2023-05-05T01:33:46.113Z,96476.81
2023-05-05T01:36:22.963Z,96481.13
2023-05-05T01:38:55.731Z,96498.56
2023-05-05T01:41:34.340Z,96470.56
2023-05-05T01:44:07.057Z,96473.06
2023-05-05T01:46:37.134Z,96479.72
2023-05-05T01:49:11.775Z,96490.41
2023-05-05T01:51:43.758Z,96482.28
2023-05-05T01:54:16.631Z,96488.66
2023-05-05T01:56:44.933Z,96493.19
2023-05-05T01:59:17.659Z,96466.75
2023-05-05T02:01:47.305Z,96427.84
2023-05-05T02:04:22.903Z,96505.66
2023-05-05T02:06:54.370Z,96509.81
2023-05-05T02:09:25.756Z,96497.44
2023-05-05T02:11:54.743Z,96505.59
2023-05-05T02:14:23.666Z,96510.81
2023-05-05T02:16:52.408Z,96497.69
2023-05-05T02:19:30.454Z,96512.94
2023-05-05T02:21:59.313Z,96512.78
2023-05-05T02:24:27.878Z,96497.44
2023-05-05T02:27:10.233Z,96510.09
2023-05-05T02:29:45.007Z,96515.53
2023-05-05T02:32:18.780Z,96518.59
2023-05-05T02:35:06.606Z,96518.59
2023-05-05T02:37:35.663Z,96508.38
2023-05-05T02:40:06.707Z,96481.34
2023-05-05T02:42:43.857Z,96506.41
2023-05-05T02:45:17.451Z,96520.28
2023-05-05T02:47:45.792Z,96515.19
2023-05-05T02:50:17.363Z,96521.66
2023-05-05T02:52:51.478Z,96518.41
2023-05-05T02:55:19.850Z,96520.88
2023-05-05T02:57:55.721Z,96514.97
2023-05-05T03:00:27.311Z,96514.97
2023-05-05T03:03:06.119Z,96520.44
2023-05-05T03:05:40.896Z,96485.47
2023-05-05T03:08:12.615Z,96451.91
2023-05-05T03:10:45.673Z,96527.84
2023-05-05T03:13:16.265Z,96511.13
2023-05-05T03:15:50.672Z,96521.44
2023-05-05T03:18:20.803Z,96530.84
2023-05-05T03:21:09.513Z,96323.81
2023-05-05T03:23:40.289Z,96388.50
2023-05-05T03:26:10.506Z,96521.72
2023-05-05T03:28:38.780Z,96518.25
2023-05-05T03:31:07.054Z,96516.22
2023-05-05T03:33:37.942Z,96517.38
2023-05-05T03:36:18.602Z,96521.50
2023-05-05T03:38:46.985Z,96516.16
2023-05-05T03:41:17.623Z,96450.22
2023-05-05T03:43:48.886Z,96516.28
2023-05-05T03:46:17.697Z,96510.44
2023-05-05T03:48:46.735Z,96515.19
2023-05-05T03:51:21.807Z,96520.84
2023-05-05T03:53:53.199Z,96527.25
2023-05-05T03:56:21.606Z,96519.72
2023-05-05T03:58:49.625Z,96525.69
2023-05-05T04:01:22.276Z,96515.75
2023-05-05T04:03:50.702Z,96526.09
2023-05-05T04:06:23.502Z,96511.91
2023-05-05T04:08:52.215Z,96515.56
2023-05-05T04:11:20.938Z,96517.06
2023-05-05T04:13:54.691Z,96550.63
2023-05-05T04:16:24.475Z,96510.00
2023-05-05T04:18:52.799Z,96511.25
2023-05-05T04:21:22.819Z,96512.81
2023-05-05T04:23:57.720Z,96528.97
2023-05-05T04:26:25.819Z,96518.78
2023-05-05T04:28:56.076Z,96525.13
2023-05-05T04:31:26.239Z,96522.69
2023-05-05T04:33:55.983Z,96484.72
2023-05-05T04:36:26.372Z,96265.38
2023-05-05T04:38:57.453Z,96459.41
2023-05-05T04:41:32.365Z,96532.03
2023-05-05T04:44:04.137Z,96536.66
2023-05-05T04:46:32.481Z,96552.84
2023-05-05T04:49:04.394Z,96526.91
2023-05-05T04:51:36.434Z,96533.75
2023-05-05T04:54:05.932Z,96538.59
2023-05-05T04:56:34.318Z,96539.03
2023-05-05T04:59:02.703Z,96538.31
2023-05-05T05:01:36.216Z,96552.38
2023-05-05T05:04:06.456Z,96540.50
2023-05-05T05:06:40.409Z,96529.38
2023-05-05T05:09:08.828Z,96540.78
2023-05-05T05:11:37.868Z,96548.22
2023-05-05T05:14:06.262Z,96544.84
2023-05-05T05:16:37.347Z,96547.53
2023-05-05T05:19:06.944Z,96555.16
2023-05-05T05:21:37.640Z,96548.97
2023-05-05T05:24:16.506Z,96535.72
2023-05-05T05:26:46.255Z,96540.00
2023-05-05T05:29:27.503Z,96552.84
2023-05-05T05:32:00.265Z,96553.44
2023-05-05T05:34:30.731Z,96534.31
2023-05-05T05:37:02.379Z,96568.53
2023-05-05T05:39:33.243Z,96565.25
2023-05-05T05:42:06.938Z,96567.16
2023-05-05T05:44:44.069Z,96570.56
2023-05-05T05:47:15.140Z,96574.56
2023-05-05T05:49:45.177Z,96571.09
2023-05-05T05:52:16.854Z,96571.75
2023-05-05T05:54:45.878Z,96576.16
2023-05-05T05:57:16.110Z,96568.25
2023-05-05T05:59:50.516Z,96574.56
2023-05-05T06:02:21.895Z,96483.22
2023-05-05T06:04:50.975Z,96584.72
2023-05-05T06:07:23.870Z,96586.03
2023-05-05T06:09:51.638Z,96588.59
2023-05-05T06:12:20.158Z,96593.66
2023-05-05T06:14:49.094Z,96589.53
2023-05-05T06:17:17.600Z,96589.19
2023-05-05T06:19:45.573Z,96591.00
2023-05-05T06:22:16.642Z,96554.22
2023-05-05T06:24:48.962Z,96588.13
2023-05-05T06:27:17.342Z,96595.78
2023-05-05T06:29:45.834Z,96593.31
2023-05-05T06:32:14.912Z,96590.78
2023-05-05T06:34:44.709Z,96562.72
2023-05-05T06:37:13.250Z,96581.38
2023-05-05T06:39:49.358Z,96562.59
2023-05-05T06:42:19.308Z,96586.41
2023-05-05T06:44:48.813Z,96589.63
2023-05-05T06:47:17.448Z,96572.22
2023-05-05T06:49:45.616Z,96597.41
2023-05-05T06:52:13.996Z,96593.78
2023-05-05T06:54:43.888Z,96376.78
2023-05-05T06:57:33.136Z,96595.34
2023-05-05T07:00:08.027Z,96606.19
2023-05-05T07:02:36.871Z,96600.56
2023-05-05T07:05:06.181Z,96607.72
2023-05-05T07:07:38.575Z,96609.63
2023-05-05T07:10:11.421Z,96609.38
2023-05-05T07:12:44.794Z,96613.13
2023-05-05T07:15:26.580Z,96614.75
2023-05-05T07:17:58.574Z,96618.31
2023-05-05T07:20:26.919Z,96602.81
2023-05-05T07:23:01.238Z,96611.75
2023-05-05T07:25:32.969Z,96617.16
2023-05-05T07:28:08.204Z,96613.78
2023-05-05T07:30:36.755Z,96612.06
2023-05-05T07:33:10.090Z,96611.88
2023-05-05T07:35:49.229Z,96613.38
2023-05-05T07:38:20.062Z,96615.88
2023-05-05T07:40:50.484Z,96616.88
2023-05-05T07:43:30.158Z,96616.38
2023-05-05T07:45:58.404Z,96615.81
2023-05-05T07:48:26.833Z,96624.69
2023-05-05T07:50:55.281Z,96627.69
2023-05-05T07:53:25.934Z,96615.41
2023-05-05T07:55:54.542Z,96626.38
2023-05-05T07:58:25.052Z,96624.28
2023-05-05T08:00:57.056Z,96594.06
2023-05-05T08:03:28.163Z,96639.00
2023-05-05T08:05:57.045Z,96595.50
2023-05-05T08:08:26.234Z,96647.81
2023-05-05T08:10:57.247Z,96578.22
2023-05-05T08:13:28.398Z,96622.16
2023-05-05T08:16:09.930Z,96619.81
2023-05-05T08:18:41.914Z,96584.38
2023-05-05T08:21:10.985Z,96624.44
2023-05-05T08:23:42.788Z,96617.13
2023-05-05T08:26:15.430Z,96622.50
2023-05-05T08:28:44.815Z,96618.75
2023-05-05T08:31:19.724Z,96590.78
2023-05-05T08:33:48.241Z,96626.91
2023-05-05T08:36:18.849Z,96632.72
2023-05-05T08:38:50.464Z,96634.91
2023-05-05T08:41:21.889Z,96630.25
2023-05-05T08:43:54.147Z,96629.16
2023-05-05T08:46:25.583Z,96632.22
2023-05-05T08:48:58.628Z,96634.34
2023-05-05T08:51:34.739Z,96627.81
2023-05-05T08:54:11.823Z,96618.97
2023-05-05T08:56:41.801Z,96635.03
2023-05-05T08:59:25.505Z,96637.44
2023-05-05T09:01:58.297Z,96629.25
2023-05-05T09:04:29.070Z,96632.66
2023-05-05T09:07:01.491Z,96627.13
2023-05-05T09:09:32.121Z,96638.00
2023-05-05T09:12:05.020Z,96569.56
2023-05-05T09:14:34.802Z,96606.19
2023-05-05T09:17:04.835Z,96627.44
2023-05-05T09:19:37.302Z,96628.34
2023-05-05T09:22:05.404Z,96634.09
2023-05-05T09:24:34.317Z,96608.63
2023-05-05T09:27:03.219Z,96568.16
2023-05-05T09:29:45.224Z,96609.41
2023-05-05T09:32:21.877Z,96621.09
2023-05-05T09:35:02.401Z,96622.03
2023-05-05T09:37:35.102Z,96622.38
2023-05-05T09:40:05.418Z,96619.88
2023-05-05T09:42:36.180Z,96618.59
2023-05-05T09:45:09.135Z,96634.97
2023-05-05T09:47:40.801Z,96366.66
2023-05-05T09:50:11.707Z,96621.13
2023-05-05T09:52:43.860Z,96584.91
2023-05-05T09:55:27.810Z,96619.34
2023-05-05T09:58:09.538Z,96537.38
2023-05-05T10:00:40.148Z,96615.28
2023-05-05T10:03:12.887Z,96613.38
2023-05-05T10:05:52.010Z,96599.72
2023-05-05T10:08:21.796Z,96613.16
2023-05-05T10:10:53.955Z,96608.56
2023-05-05T10:13:26.802Z,96618.56
2023-05-05T10:15:59.941Z,96609.59
2023-05-05T10:18:34.193Z,96598.47
2023-05-05T10:21:05.329Z,96596.97
2023-05-05T10:23:39.400Z,96606.59
2023-05-05T10:26:19.913Z,96605.31
2023-05-05T10:28:56.751Z,96592.75
2023-05-05T10:31:29.689Z,96596.31
2023-05-05T10:34:04.605Z,96604.53
2023-05-05T10:36:35.149Z,96597.06
2023-05-05T10:39:09.378Z,96590.72
2023-05-05T10:41:41.122Z,96588.41
2023-05-05T10:44:11.233Z,96582.22
2023-05-05T10:46:39.819Z,96581.38
2023-05-05T10:49:20.121Z,96574.50
2023-05-05T10:51:55.856Z,96579.06
2023-05-05T10:54:36.360Z,96585.53
2023-05-05T10:57:09.215Z,96586.88
2023-05-05T10:59:46.710Z,96578.31
2023-05-05T11:02:40.603Z,96563.09
2023-05-05T11:05:21.089Z,96460.44
2023-05-05T11:07:52.531Z,96548.47
2023-05-05T11:10:24.679Z,96546.09
2023-05-05T11:13:20.319Z,96555.88
2023-05-05T11:15:57.213Z,96548.66
2023-05-05T11:18:36.412Z,96547.75
2023-05-05T11:21:20.622Z,96536.38
2023-05-05T11:23:51.295Z,96508.94
2023-05-05T11:26:23.750Z,96534.13
2023-05-05T11:29:02.976Z,96535.69
2023-05-05T11:31:36.258Z,96531.75
2023-05-05T11:34:29.525Z,96529.06
2023-05-05T11:37:13.121Z,96518.09
2023-05-05T11:39:54.909Z,96514.38
2023-05-05T11:42:28.074Z,96533.38
2023-05-05T11:44:56.566Z,96518.47
2023-05-05T11:47:32.430Z,96520.06
2023-05-05T11:50:16.729Z,96516.59
2023-05-05T11:52:49.739Z,96514.97
2023-05-05T11:55:23.741Z,96516.25
2023-05-05T11:57:55.325Z,96514.59
2023-05-05T12:00:36.722Z,96491.38
2023-05-05T12:03:06.578Z,96503.28
2023-05-05T12:05:40.093Z,96499.59
2023-05-05T12:08:10.374Z,96505.84
2023-05-05T12:10:40.948Z,96440.84
2023-05-05T12:13:23.429Z,96500.81
2023-05-05T12:15:57.821Z,96400.16
2023-05-05T12:18:28.812Z,96491.91
2023-05-05T12:20:57.274Z,96470.41
2023-05-05T12:23:32.028Z,96496.75
2023-05-05T12:25:59.882Z,96434.25
2023-05-05T12:28:50.509Z,96483.06
2023-05-05T12:31:18.723Z,96478.50
2023-05-05T12:33:59.584Z,96476.84
2023-05-05T12:36:31.176Z,96466.84
2023-05-05T12:39:03.390Z,96471.75
2023-05-05T12:41:35.065Z,96471.41
2023-05-05T12:44:06.018Z,96463.25
2023-05-05T12:46:47.360Z,96446.81
2023-05-05T12:49:20.343Z,96443.75
2023-05-05T12:51:58.392Z,96442.16
2023-05-05T12:54:33.689Z,96440.25
2023-05-05T12:57:12.779Z,96437.13
2023-05-05T12:59:40.608Z,96434.03
2023-05-05T13:02:11.707Z,96430.91
2023-05-05T13:04:50.397Z,96417.69
2023-05-05T13:07:21.757Z,96420.25
2023-05-05T13:09:51.995Z,96419.66
2023-05-05T13:12:23.308Z,96417.16
2023-05-05T13:14:58.015Z,96413.94
2023-05-05T13:17:32.804Z,96413.69
2023-05-05T13:20:06.698Z,96412.41
2023-05-05T13:22:44.956Z,96423.69
2023-05-05T13:25:20.056Z,96329.47
2023-05-05T13:27:52.972Z,96400.09
2023-05-05T13:30:21.448Z,96395.97
2023-05-05T13:32:49.597Z,96385.19
2023-05-05T13:35:20.174Z,96381.75
2023-05-05T13:37:52.521Z,96344.28
2023-05-05T13:40:24.516Z,96379.72
2023-05-05T13:42:55.232Z,96373.63
2023-05-05T13:45:24.329Z,96247.09
2023-05-05T13:47:55.033Z,96369.28
2023-05-05T13:50:31.968Z,96326.81
2023-05-05T13:52:59.883Z,96361.34
2023-05-05T13:55:36.507Z,96347.31
2023-05-05T13:58:09.679Z,96348.50
2023-05-05T14:00:37.886Z,96354.84
2023-05-05T14:03:08.909Z,96352.16
2023-05-05T14:05:39.148Z,96352.38
2023-05-05T14:08:09.724Z,96329.56
2023-05-05T14:10:40.479Z,96339.56
2023-05-05T14:13:09.055Z,96348.59
2023-05-05T14:15:38.827Z,96348.56
2023-05-05T14:18:08.709Z,96343.03
2023-05-05T14:20:41.672Z,96367.13
2023-05-05T14:23:11.065Z,96363.75
2023-05-05T14:25:43.900Z,96372.34
2023-05-05T14:28:12.766Z,96378.34
2023-05-05T14:30:44.920Z,96330.97
2023-05-05T14:33:14.496Z,96372.28
2023-05-05T14:35:42.802Z,96374.34
2023-05-05T14:38:13.889Z,96365.09
2023-05-05T14:40:46.102Z,96354.88
2023-05-05T14:43:17.059Z,96354.94
2023-05-05T14:45:48.400Z,96363.78
2023-05-05T14:48:25.454Z,96363.88
2023-05-05T14:50:59.455Z,96354.53
2023-05-05T14:53:30.968Z,96346.38
2023-05-05T14:56:07.045Z,96371.72
2023-05-05T14:58:44.488Z,96358.06
2023-05-05T15:01:21.213Z,96364.63
2023-05-05T15:03:52.613Z,96323.69
2023-05-05T15:06:28.555Z,96358.06
2023-05-05T15:08:56.900Z,96324.34
2023-05-05T15:11:28.418Z,96350.59
2023-05-05T15:13:57.390Z,96350.72
2023-05-05T15:16:29.359Z,96352.47
2023-05-05T15:18:58.457Z,96359.06
2023-05-05T15:21:26.981Z,96332.22
2023-05-05T15:23:57.335Z,96348.09
2023-05-05T15:26:29.300Z,96342.19
2023-05-05T15:28:57.133Z,96342.91
2023-05-05T15:31:26.999Z,96341.78
2023-05-05T15:34:01.697Z,96335.84
2023-05-05T15:36:29.887Z,96339.00
2023-05-05T15:38:59.172Z,96331.91
2023-05-05T15:41:29.669Z,96331.81
2023-05-05T15:43:58.396Z,96319.34
2023-05-05T15:46:26.884Z,96355.53
2023-05-05T15:48:54.699Z,96383.34
2023-05-05T15:51:27.428Z,96159.56
2023-05-05T15:54:04.207Z,96388.25
2023-05-05T15:56:33.866Z,96390.97
2023-05-05T15:59:05.396Z,96347.16
2023-05-05T16:01:36.612Z,96400.44
2023-05-05T16:04:08.848Z,96408.56
2023-05-05T16:06:37.053Z,96454.63
2023-05-05T16:09:05.714Z,96432.28
2023-05-05T16:11:37.736Z,96439.94
2023-05-05T16:14:05.716Z,96435.63
2023-05-05T16:16:33.733Z,96442.66
2023-05-05T16:19:01.872Z,96444.38
2023-05-05T16:21:31.470Z,96449.59
2023-05-05T16:23:59.733Z,96463.63
2023-05-05T16:26:30.223Z,96466.13
2023-05-05T16:29:00.925Z,96453.06
2023-05-05T16:31:29.599Z,96461.84
2023-05-05T16:34:14.971Z,96401.06
2023-05-05T16:36:46.046Z,96331.22
2023-05-05T16:39:18.843Z,96461.13
2023-05-05T16:41:52.407Z,96427.09
2023-05-05T16:44:25.361Z,96466.69
2023-05-05T16:46:53.958Z,96461.63
2023-05-05T16:49:24.165Z,96454.94
2023-05-05T16:51:52.834Z,96453.44
2023-05-05T16:54:21.260Z,96449.28
2023-05-05T16:56:52.642Z,96441.25
2023-05-05T16:59:22.756Z,96437.00
2023-05-05T17:01:56.205Z,96425.53
2023-05-05T17:04:25.242Z,96433.66
2023-05-05T17:06:56.336Z,96428.25
2023-05-05T17:09:27.316Z,96437.31
2023-05-05T17:12:01.043Z,96431.84
2023-05-05T17:14:30.664Z,96416.63
2023-05-05T17:16:59.511Z,96436.72
2023-05-05T17:19:29.533Z,96407.38
2023-05-05T17:21:57.679Z,96441.13
2023-05-05T17:24:40.337Z,96424.31
2023-05-05T17:27:13.449Z,96432.63
2023-05-05T17:29:43.265Z,96447.59
2023-05-05T17:32:11.154Z,96452.22
2023-05-05T17:34:41.777Z,96459.91
2023-05-05T17:37:10.658Z,96499.50
2023-05-05T17:39:39.662Z,96463.00
2023-05-05T17:42:09.108Z,96462.69
2023-05-05T17:44:36.976Z,96434.22
2023-05-05T17:47:08.614Z,96416.72
2023-05-05T17:49:36.553Z,96375.47
2023-05-05T17:52:07.498Z,96431.44
2023-05-05T17:54:39.159Z,96471.28
2023-05-05T17:57:11.234Z,96466.13
2023-05-05T17:59:39.449Z,96459.13
2023-05-05T18:02:15.679Z,96460.69
2023-05-05T18:04:43.915Z,96466.13
2023-05-05T18:07:14.971Z,96461.34
2023-05-05T18:09:52.279Z,96455.78
2023-05-05T18:12:20.503Z,96447.72
2023-05-05T18:14:50.744Z,96447.81
2023-05-05T18:17:21.541Z,96445.00
2023-05-05T18:19:51.037Z,96450.53
2023-05-05T18:22:22.006Z,96452.91
2023-05-05T18:24:59.982Z,96455.25
2023-05-05T18:27:32.638Z,96455.78
2023-05-05T18:30:00.977Z,96417.25
2023-05-05T18:32:31.946Z,96451.13
2023-05-05T18:35:00.562Z,96447.47
2023-05-05T18:37:34.148Z,96458.34
2023-05-05T18:40:02.332Z,96468.25
2023-05-05T18:42:34.603Z,96462.84
2023-05-05T18:45:08.578Z,96473.28
2023-05-05T18:47:44.317Z,96478.25
2023-05-05T18:50:13.927Z,96447.28
2023-05-05T18:52:48.326Z,96463.34
2023-05-05T18:55:18.897Z,96482.13
2023-05-05T18:57:47.198Z,96495.75
2023-05-05T19:00:30.312Z,96475.78
2023-05-05T19:03:09.364Z,96376.03
2023-05-05T19:05:42.281Z,96493.50
2023-05-05T19:08:16.270Z,96496.56
2023-05-05T19:10:49.646Z,96507.38
2023-05-05T19:13:18.024Z,96510.72
2023-05-05T19:15:49.869Z,96512.59
2023-05-05T19:18:20.134Z,96514.09
2023-05-05T19:20:52.969Z,96523.81
2023-05-05T19:23:22.977Z,96536.66
2023-05-05T19:26:16.918Z,96498.25
2023-05-05T19:28:46.495Z,96534.53
2023-05-05T19:31:25.197Z,96530.25
2023-05-05T19:34:07.335Z,96527.50
2023-05-05T19:36:35.799Z,96526.09
2023-05-05T19:39:08.630Z,96532.81
2023-05-05T19:41:37.069Z,96533.16
2023-05-05T19:44:05.548Z,96482.72
2023-05-05T19:46:33.812Z,96527.69
2023-05-05T19:49:04.070Z,96537.78
2023-05-05T19:51:33.180Z,96551.22
2023-05-05T19:54:01.327Z,96548.41
2023-05-05T19:56:29.717Z,96557.38
2023-05-05T19:59:05.375Z,96537.47
2023-05-05T20:01:34.560Z,96528.31
2023-05-05T20:04:04.835Z,96561.34
2023-05-05T20:06:33.789Z,96535.97
2023-05-05T20:09:02.342Z,96559.81
2023-05-05T20:11:34.658Z,96514.47
2023-05-05T20:14:04.676Z,96559.63
2023-05-05T20:16:33.936Z,96558.88
2023-05-05T20:19:03.922Z,96556.94
2023-05-05T20:21:32.852Z,96508.09
2023-05-05T20:24:02.639Z,96526.06
2023-05-05T20:26:37.060Z,96564.47
2023-05-05T20:29:06.452Z,96570.81
2023-05-05T20:31:35.006Z,96568.53
2023-05-05T20:34:06.933Z,96578.31
2023-05-05T20:36:38.762Z,96403.41
2023-05-05T20:39:07.746Z,96578.53
2023-05-05T20:41:36.379Z,96581.69
2023-05-05T20:44:07.785Z,96580.00
2023-05-05T20:46:36.416Z,96560.31
2023-05-05T20:49:09.448Z,96498.16
2023-05-05T20:51:39.854Z,96570.22
2023-05-05T20:54:08.064Z,96568.94
2023-05-05T20:56:36.262Z,96564.41
2023-05-05T20:59:04.945Z,96561.16
2023-05-05T21:01:35.565Z,96556.38
2023-05-05T21:04:07.659Z,96561.00
2023-05-05T21:06:35.843Z,96552.81
2023-05-05T21:09:04.175Z,96554.78
2023-05-05T21:11:34.758Z,96554.84
2023-05-05T21:14:04.271Z,96558.34
2023-05-05T21:16:33.612Z,96552.72
2023-05-05T21:19:01.560Z,96522.84
2023-05-05T21:21:32.603Z,96520.34
2023-05-05T21:24:01.012Z,96519.28
2023-05-05T21:26:33.074Z,96553.22
2023-05-05T21:29:01.402Z,96534.56
2023-05-05T21:31:34.454Z,96556.78
2023-05-05T21:34:06.050Z,96492.34
2023-05-05T21:36:36.318Z,96541.59
2023-05-05T21:39:21.458Z,96535.59
2023-05-05T21:41:52.511Z,96550.41
2023-05-05T21:44:25.763Z,96521.13
2023-05-05T21:46:57.161Z,96548.75
2023-05-05T21:49:28.975Z,96545.28
2023-05-05T21:52:01.747Z,96518.88
2023-05-05T21:54:36.341Z,96507.28
2023-05-05T21:57:04.694Z,96547.72
2023-05-05T21:59:33.007Z,96546.69
2023-05-05T22:02:04.777Z,96553.56
2023-05-05T22:04:32.871Z,96538.81
2023-05-05T22:07:03.496Z,96533.53
2023-05-05T22:09:31.234Z,96532.91
2023-05-05T22:12:02.610Z,96537.47
2023-05-05T22:14:30.405Z,96537.38
2023-05-05T22:17:04.180Z,96532.50
2023-05-05T22:19:37.710Z,96534.97
2023-05-05T22:22:10.430Z,96535.47
2023-05-05T22:24:42.520Z,96537.53
2023-05-05T22:27:12.160Z,96534.19
2023-05-05T22:29:40.365Z,96525.28
2023-05-05T22:32:12.644Z,96530.63
2023-05-05T22:34:40.695Z,96539.34
2023-05-05T22:37:10.365Z,96535.59
2023-05-05T22:39:39.362Z,96528.47
2023-05-05T22:42:10.008Z,96545.28
2023-05-05T22:44:39.987Z,96290.22
2023-05-05T22:47:11.399Z,96540.44
2023-05-05T22:49:43.804Z,96552.81
2023-05-05T22:52:14.082Z,96541.50
2023-05-05T22:54:43.568Z,96540.50
2023-05-05T22:57:15.825Z,96540.78
2023-05-05T22:59:45.814Z,96542.63
2023-05-05T23:02:14.711Z,96546.97
2023-05-05T23:04:44.904Z,96500.56
2023-05-05T23:07:23.952Z,96483.66
2023-05-05T23:09:54.399Z,96533.91
2023-05-05T23:12:23.020Z,96534.22
2023-05-05T23:14:52.518Z,96526.25
2023-05-05T23:17:27.595Z,96524.91
2023-05-05T23:19:58.416Z,96534.19
2023-05-05T23:22:32.508Z,96488.22
2023-05-05T23:25:05.219Z,96536.50
2023-05-05T23:27:33.934Z,96535.38
2023-05-05T23:30:07.131Z,96531.81
2023-05-05T23:32:35.326Z,96537.56
2023-05-05T23:35:03.166Z,96539.28
2023-05-05T23:37:33.301Z,96541.09
2023-05-05T23:40:02.858Z,96537.56
2023-05-05T23:42:32.697Z,96537.28
2023-05-05T23:45:00.881Z,96531.16
2023-05-05T23:47:29.417Z,96535.59
2023-05-05T23:49:57.491Z,96539.88
2023-05-05T23:52:25.907Z,96534.69
2023-05-05T23:54:57.580Z,96518.97
2023-05-05T23:57:29.476Z,96525.94
